Site contains unofficial IBTrACS data. Visit the IBTrACS Website to access archived data.

1855 Tropical Storm NOT_NAMED (1855263N24306)


IBTrACS version v04r00. Visit IBTrACS website for data access.
Please direct all questions to the IBTrACS Q and A forum

Storm track - Intensity - Wind Radii - Intensity Data - Source Data - All data

Summary Information

Storm ID 1855263N24306
Start Sep 19 12Z
Max Intensity 55 kt (Sep 19 15Z), 990 mb (Sep 25 12Z)
End Sep 28 12Z
ATCF IDs
Track status Best track data.

Storm track plot

Map of storm track

Intensity plots

Map of storm track

Radial wind information

No radial wind information for this storm


Position and Intensity Table

BASIN ISO_TIME_________ NATURE LAT LON MLC WIND MLC PRES
degrees north degrees east kts mb
NA 1855-09-19 12:00:00 TS 24.00 -54.00 55
NA 15:00:00 TS 24.30 -54.30 55
NA 18:00:00 TS 24.60 -54.60 55
NA 21:00:00 TS 24.90 -54.90 55
NA 1855-09-20 00:00:00 TS 25.20 -55.20 55
NA 03:00:00 TS 25.50 -55.51 55
NA 06:00:00 TS 25.80 -55.80 55
NA 09:00:00 TS 26.10 -56.07 55
NA 12:00:00 TS 26.40 -56.30 55
NA 15:00:00 TS 26.70 -56.52 55
NA 18:00:00 TS 27.00 -56.70 55
NA 21:00:00 TS 27.30 -56.86 55
NA 1855-09-21 00:00:00 TS 27.60 -57.00 55
NA 03:00:00 TS 27.91 -57.15 55
NA 06:00:00 TS 28.20 -57.30 55
NA 09:00:00 TS 28.44 -57.44 55
NA 12:00:00 TS 28.70 -57.60 55
NA 15:00:00 TS 29.04 -57.80 55
NA 18:00:00 TS 29.40 -58.00 55
NA 21:00:00 TS 29.71 -58.15 55
NA 1855-09-22 00:00:00 TS 30.00 -58.30 55
NA 03:00:00 TS 30.30 -58.50 55
NA 06:00:00 TS 30.60 -58.70 55
NA 09:00:00 TS 30.91 -58.87 55
NA 12:00:00 TS 31.20 -59.00 55
NA 15:00:00 TS 31.41 -59.12 55
NA 18:00:00 TS 31.60 -59.20 55
NA 21:00:00 TS 31.80 -59.25 55
NA 1855-09-23 00:00:00 TS 32.00 -59.30 55
NA 03:00:00 TS 32.20 -59.40 55
NA 06:00:00 TS 32.40 -59.50 55
NA 09:00:00 TS 32.58 -59.56 55
NA 12:00:00 TS 32.80 -59.60 55
NA 15:00:00 TS 33.09 -59.65 55
NA 18:00:00 TS 33.40 -59.70 55
NA 21:00:00 TS 33.65 -59.75 55
NA 1855-09-24 00:00:00 TS 33.90 -59.80 55
NA 03:00:00 TS 34.20 -59.85 55
NA 06:00:00 TS 34.50 -59.90 55
NA 09:00:00 TS 34.75 -59.96 55
NA 12:00:00 TS 35.00 -60.00 55
NA 15:00:00 TS 35.29 -60.04 55
NA 18:00:00 TS 35.60 -60.00 55
NA 21:00:00 TS 35.90 -59.77 55
NA 1855-09-25 00:00:00 TS 36.20 -59.50 55
NA 03:00:00 TS 36.51 -59.37 55
NA 06:00:00 TS 36.80 -59.30 55
NA 09:00:00 TS 37.07 -59.29 55
NA 12:00:00 TS 37.30 -59.20 55 990
NA 15:00:00 TS 37.47 -58.85 55
NA 18:00:00 TS 37.60 -58.40 55
NA 21:00:00 TS 37.75 -58.04 55
NA 1855-09-26 00:00:00 TS 37.90 -57.70 55
NA 03:00:00 TS 38.05 -57.35 52
NA 06:00:00 TS 38.20 -57.00 50
NA 09:00:00 TS 38.36 -56.66 50
NA 12:00:00 TS 38.50 -56.30 50
NA 15:00:00 TS 38.61 -55.87 47
NA 18:00:00 TS 38.70 -55.40 45
NA 21:00:00 TS 38.76 -54.91 45
NA 1855-09-27 00:00:00 TS 38.80 -54.40 45
NA 03:00:00 TS 38.85 -53.90 45
NA 06:00:00 TS 38.90 -53.40 45
NA 09:00:00 TS 38.88 -52.96 42
NA 12:00:00 ET 39.00 -52.40 40
NA 15:00:00 ET 39.43 -51.53 40
NA 18:00:00 ET 40.00 -50.50 40
NA 21:00:00 ET 40.50 -49.43 37
NA 1855-09-28 00:00:00 ET 41.00 -48.50 35
NA 03:00:00 ET 41.50 -47.92 32
NA 06:00:00 ET 42.00 -47.50 30
NA 09:00:00 ET 42.50 -47.03 27
NA 12:00:00 ET 43.00 -46.50 25

Source Information

Agency Information
USA
TOKYO
CMA
HKO
NEWDELHI
REUNION
BOM
NADI
WELLINGTON
DS824
TD9636
TD9635
NEUMANN
MLC

All available IBTrACS Data

SEASON BASIN SUBBASIN ISO_TIME_________ NATURE LAT LON DIST2LAND LANDFALL IFLAG USA SSHS MLC LAT MLC LON MLC CLASS MLC WIND MLC PRES STORM SPEED STORM DIR
Year degrees north degrees east km km 1 degrees north degrees east kts mb kts degrees
1855 NA NA 1855-09-19 12:00:00 TS 24.00 -54.00 1354 1342 _____________O -1 24.00 -54.00 TS 55 8 317
1855 NA NA 15:00:00 TS 24.30 -54.30 1342 1331 _____________P -1 24.30 -54.30 TS 55 8 318
1855 NA NA 18:00:00 TS 24.60 -54.60 1331 1316 _____________O -1 24.60 -54.60 TS 55 8 318
1855 NA NA 21:00:00 TS 24.90 -54.90 1322 1314 _____________P -1 24.90 -54.90 TS 55 8 318
1855 NA NA 1855-09-20 00:00:00 TS 25.20 -55.20 1314 1302 _____________O -1 25.20 -55.20 TS 55 8 318
1855 NA NA 03:00:00 TS 25.50 -55.51 1308 1297 _____________P -1 25.50 -55.51 TS 55 8 318
1855 NA NA 06:00:00 TS 25.80 -55.80 1304 1301 _____________O -1 25.80 -55.80 TS 55 8 320
1855 NA NA 09:00:00 TS 26.10 -56.07 1301 1300 _____________P -1 26.10 -56.07 TS 55 8 323
1855 NA NA 12:00:00 TS 26.40 -56.30 1307 1307 _____________O -1 26.40 -56.30 TS 55 7 326
1855 NA NA 15:00:00 TS 26.70 -56.52 1315 1315 _____________P -1 26.70 -56.52 TS 55 7 329
1855 NA NA 18:00:00 TS 27.00 -56.70 1324 1324 _____________O -1 27.00 -56.70 TS 55 7 333
1855 NA NA 21:00:00 TS 27.30 -56.86 1334 1334 _____________P -1 27.30 -56.86 TS 55 7 336
1855 NA NA 1855-09-21 00:00:00 TS 27.60 -57.00 1352 1352 _____________O -1 27.60 -57.00 TS 55 7 337
1855 NA NA 03:00:00 TS 27.91 -57.15 1364 1364 _____________P -1 27.91 -57.15 TS 55 7 336
1855 NA NA 06:00:00 TS 28.20 -57.30 1383 1383 _____________O -1 28.20 -57.30 TS 55 6 334
1855 NA NA 09:00:00 TS 28.44 -57.44 1394 1394 _____________P -1 28.44 -57.44 TS 55 6 332
1855 NA NA 12:00:00 TS 28.70 -57.60 1409 1409 _____________O -1 28.70 -57.60 TS 55 7 332
1855 NA NA 15:00:00 TS 29.04 -57.80 1424 1424 _____________P -1 29.04 -57.80 TS 55 8 333
1855 NA NA 18:00:00 TS 29.40 -58.00 1450 1450 _____________O -1 29.40 -58.00 TS 55 7 335
1855 NA NA 21:00:00 TS 29.71 -58.15 1468 1468 _____________P -1 29.71 -58.15 TS 55 7 337
1855 NA NA 1855-09-22 00:00:00 TS 30.00 -58.30 1491 1491 _____________O -1 30.00 -58.30 TS 55 7 333
1855 NA NA 03:00:00 TS 30.30 -58.50 1510 1510 _____________P -1 30.30 -58.50 TS 55 7 330
1855 NA NA 06:00:00 TS 30.60 -58.70 1530 1511 _____________O -1 30.60 -58.70 TS 55 7 333
1855 NA NA 09:00:00 TS 30.91 -58.87 1511 1477 _____________P -1 30.91 -58.87 TS 55 7 337
1855 NA NA 12:00:00 TS 31.20 -59.00 1477 1452 _____________O -1 31.20 -59.00 TS 55 5 337
1855 NA NA 15:00:00 TS 31.41 -59.12 1452 1428 _____________P -1 31.41 -59.12 TS 55 4 337
1855 NA NA 18:00:00 TS 31.60 -59.20 1428 1407 _____________O -1 31.60 -59.20 TS 55 4 343
1855 NA NA 21:00:00 TS 31.80 -59.25 1404 1383 _____________P -1 31.80 -59.25 TS 55 4 348
1855 NA NA 1855-09-23 00:00:00 TS 32.00 -59.30 1383 1359 _____________O -1 32.00 -59.30 TS 55 4 343
1855 NA NA 03:00:00 TS 32.20 -59.40 1359 1335 _____________P -1 32.20 -59.40 TS 55 4 337
1855 NA NA 06:00:00 TS 32.40 -59.50 1335 1310 _____________O -1 32.40 -59.50 TS 55 4 341
1855 NA NA 09:00:00 TS 32.58 -59.56 1310 1290 _____________P -1 32.58 -59.56 TS 55 4 348
1855 NA NA 12:00:00 TS 32.80 -59.60 1290 1258 _____________O -1 32.80 -59.60 TS 55 5 351
1855 NA NA 15:00:00 TS 33.09 -59.65 1258 1224 _____________P -1 33.09 -59.65 TS 55 6 352
1855 NA NA 18:00:00 TS 33.40 -59.70 1224 1203 _____________O -1 33.40 -59.70 TS 55 6 351
1855 NA NA 21:00:00 TS 33.65 -59.75 1189 1169 _____________P -1 33.65 -59.75 TS 55 5 351
1855 NA NA 1855-09-24 00:00:00 TS 33.90 -59.80 1169 1138 _____________O -1 33.90 -59.80 TS 55 6 352
1855 NA NA 03:00:00 TS 34.20 -59.85 1138 1104 _____________P -1 34.20 -59.85 TS 55 6 352
1855 NA NA 06:00:00 TS 34.50 -59.90 1104 1079 _____________O -1 34.50 -59.90 TS 55 6 351
1855 NA NA 09:00:00 TS 34.75 -59.96 1069 1049 _____________P -1 34.75 -59.96 TS 55 5 351
1855 NA NA 12:00:00 TS 35.00 -60.00 1049 1018 _____________O -1 35.00 -60.00 TS 55 5 353
1855 NA NA 15:00:00 TS 35.29 -60.04 1018 988 _____________P -1 35.29 -60.04 TS 55 6 1
1855 NA NA 18:00:00 TS 35.60 -60.00 988 966 _____________O -1 35.60 -60.00 TS 55 7 21
1855 NA NA 21:00:00 TS 35.90 -59.77 966 950 _____________P -1 35.90 -59.77 TS 55 7 34
1855 NA NA 1855-09-25 00:00:00 TS 36.20 -59.50 950 925 _____________O -1 36.20 -59.50 TS 55 7 28
1855 NA NA 03:00:00 TS 36.51 -59.37 925 901 _____________P -1 36.51 -59.37 TS 55 6 15
1855 NA NA 06:00:00 TS 36.80 -59.30 901 873 _____________O -1 36.80 -59.30 TS 55 6 6
1855 NA NA 09:00:00 TS 37.07 -59.29 873 860 _____________P -1 37.07 -59.29 TS 55 5 9
1855 NA NA 12:00:00 TS 37.30 -59.20 860 856 _____________O -1 37.30 -59.20 TS 55 990 5 42
1855 NA NA 15:00:00 TS 37.47 -58.85 863 863 _____________P -1 37.47 -58.85 TS 55 7 65
1855 NA NA 18:00:00 TS 37.60 -58.40 870 863 _____________O -1 37.60 -58.40 TS 55 7 66
1855 NA NA 21:00:00 TS 37.75 -58.04 872 856 _____________P -1 37.75 -58.04 TS 55 6 62
1855 NA NA 1855-09-26 00:00:00 TS 37.90 -57.70 859 851 _____________O -1 37.90 -57.70 TS 55 6 61
1855 NA NA 03:00:00 TS 38.05 -57.35 860 845 _____________P -1 38.05 -57.35 TS 52 6 61
1855 NA NA 06:00:00 TS 38.20 -57.00 849 842 _____________O -1 38.20 -57.00 TS 50 6 60
1855 NA NA 09:00:00 TS 38.36 -56.66 838 838 _____________P -1 38.36 -56.66 TS 50 6 61
1855 NA NA 12:00:00 TS 38.50 -56.30 843 841 _____________O -1 38.50 -56.30 TS 50 7 67
1855 NA NA 15:00:00 TS 38.61 -55.87 849 848 _____________P -1 38.61 -55.87 TS 47 7 74
1855 NA NA 18:00:00 TS 38.70 -55.40 861 861 _____________O -1 38.70 -55.40 TS 45 8 79
1855 NA NA 21:00:00 TS 38.76 -54.91 873 869 _____________P -1 38.76 -54.91 TS 45 8 83
1855 NA NA 1855-09-27 00:00:00 TS 38.80 -54.40 869 867 _____________O -1 38.80 -54.40 TS 45 8 83
1855 NA NA 03:00:00 TS 38.85 -53.90 867 856 _____________P -1 38.85 -53.90 TS 45 8 83
1855 NA NA 06:00:00 TS 38.90 -53.40 856 856 _____________O -1 38.90 -53.40 TS 45 7 88
1855 NA NA 09:00:00 TS 38.88 -52.96 856 847 _____________P -1 38.88 -52.96 TS 42 8 83
1855 NA NA 12:00:00 ET 39.00 -52.40 847 810 _____________O -1 39.00 -52.40 EX 40 12 64
1855 NA NA 15:00:00 ET 39.43 -51.53 812 763 _____________P -1 39.43 -51.53 EX 40 18 56
1855 NA NA 18:00:00 ET 40.00 -50.50 765 740 _____________O -1 40.00 -50.50 EX 40 19 56
1855 NA NA 21:00:00 ET 40.50 -49.43 743 726 _____________P -1 40.50 -49.43 EX 37 18 57
1855 NA NA 1855-09-28 00:00:00 ET 41.00 -48.50 726 706 _____________O -1 41.00 -48.50 EX 35 15 49
1855 NA NA 03:00:00 ET 41.50 -47.92 706 682 _____________P -1 41.50 -47.92 EX 32 12 37
1855 NA NA 06:00:00 ET 42.00 -47.50 682 662 _____________O -1 42.00 -47.50 EX 30 12 34
1855 NA NA 09:00:00 ET 42.50 -47.03 668 657 _____________P -1 42.50 -47.03 EX 27 12 36
1855 NA NA 12:00:00 ET 43.00 -46.50 660 _____________O -1 43.00 -46.50 EX 25 13 38